F/V Le Dolmen — FHMD — position and weather

sailwx.info

Track history (hours):
 
Tides and Currents Weather Stations Pressure Air Temp Water Temp Dewpoint Dewpoint Depression Visibility Wind Speed Wind Dir Waves Ship Positions

F/V Le Dolmen

Last reported at 2016-Aug-25 16:33 UTC. Time now 2016-Aug-26 13:43 UTC.
Position N 46°32' W 003°47'.

Length 18 m.

Type: Fishing. MMSI: 228374000.

Date/timePositionNaut miles runAvg speedWind from/ knotsBaromVisibWave heightAir tempDewpointWater temp
2016-Aug-25 16:33N 46°32' W 003°47'2 2.1
2016-Aug-25 15:33N 46°32' W 003°44'29 9.1
2016-Aug-25 12:21N 47°01' W 003°34'8 9.9
2016-Aug-25 11:30N 47°09' W 003°30'9 9.6
2016-Aug-25 10:33N 47°18' W 003°28'10 9.8
2016-Aug-25 09:34N 47°27' W 003°24'10 9.6
2016-Aug-25 08:33N 47°37' W 003°22'7 6.9
2016-Aug-25 07:34N 47°44' W 003°22'0 0.1
2016-Aug-25 06:33N 47°44' W 003°22'0 0.0
2016-Aug-25 04:33N 47°44' W 003°22'0 0.0
2016-Aug-25 03:33N 47°44' W 003°22'0 0.0
2016-Aug-25 02:33N 47°44' W 003°22'0 0.0
2016-Aug-25 01:33N 47°44' W 003°22'0 0.0
2016-Aug-25 00:34N 47°44' W 003°22'0 0.0
2016-Aug-24 23:34N 47°44' W 003°22'0 0.0
2016-Aug-24 22:34N 47°44' W 003°22'0 0.0
2016-Aug-24 21:34N 47°44' W 003°22'0 0.0
2016-Aug-24 20:33N 47°44' W 003°22'0 0.0
2016-Aug-24 19:33N 47°44' W 003°22'0 0.0
2016-Aug-24 18:34N 47°44' W 003°22'0 0.0
2016-Aug-24 17:33N 47°44' W 003°22'0 0.0
2016-Aug-24 16:33N 47°44' W 003°22'0 0.0
2016-Aug-24 15:33N 47°44' W 003°22'0 0.0
2016-Aug-24 14:33N 47°44' W 003°22'0 0.0
2016-Aug-24 13:33N 47°44' W 003°22'0 0.0
2016-Aug-24 12:33N 47°44' W 003°22'0 0.0
2016-Aug-24 11:33N 47°44' W 003°22'0 0.0
2016-Aug-24 10:33N 47°44' W 003°22'0 0.0
2016-Aug-24 09:34N 47°44' W 003°22'0 0.0
2016-Aug-24 08:33N 47°44' W 003°22'0 0.0
2016-Aug-24 07:34N 47°44' W 003°22'0 0.0
2016-Aug-24 06:33N 47°44' W 003°22'0 0.0
2016-Aug-24 04:34N 47°44' W 003°22'0 0.0
2016-Aug-24 03:33N 47°44' W 003°22'0 0.0
2016-Aug-24 02:34N 47°44' W 003°22'0 0.0
2016-Aug-24 01:33N 47°44' W 003°22'0 0.0
2016-Aug-24 00:33N 47°44' W 003°22'0 0.0
2016-Aug-23 23:33N 47°44' W 003°22'0 0.0
2016-Aug-23 22:33N 47°44' W 003°22'0 0.0
2016-Aug-23 21:33N 47°44' W 003°22'0 0.0
2016-Aug-23 20:33N 47°44' W 003°22'0 0.0
2016-Aug-23 19:34N 47°44' W 003°22'0 0.1
2016-Aug-23 18:33N 47°44' W 003°22'0 0.1
2016-Aug-23 17:33N 47°44' W 003°22'0 0.0
2016-Aug-23 16:34N 47°44' W 003°22'0 0.0
2016-Aug-23 15:33N 47°44' W 003°22'0 0.0
2016-Aug-23 14:33N 47°44' W 003°22'2 1.7
2016-Aug-23 13:34N 47°42' W 003°22'10 9.7
2016-Aug-23 12:34N 47°33' W 003°25'9 9.4
2016-Aug-23 11:34N 47°24' W 003°31'8 8.4
2016-Aug-23 10:33N 47°16' W 003°36'9 9.5
2016-Aug-23 09:33N 47°08' W 003°43'9 9.4
2016-Aug-23 08:34N 46°60' W 003°49'10 9.8
2016-Aug-23 07:34N 46°51' W 003°56'9 9.2
2016-Aug-23 06:33N 46°43' W 004°03'11 9.9
2016-Aug-23 05:27N 46°33' W 004°10'57 4.3
2016-Aug-22 16:11N 45°58' W 005°14'  
2016-Aug-17 06:32N 45°33' W 004°32'21 8.5
2016-Aug-17 04:07N 45°13' W 004°22'  
Track history (hours):
 
Tides and Currents Weather Stations Pressure Air Temp Water Temp Dewpoint Dewpoint Depression Visibility Wind Speed Wind Dir Waves Ship Positions

F/V Le Dolmen

Last reported at 2016-Aug-25 16:33 UTC. Time now 2016-Aug-26 13:43 UTC.
Position N 46°32' W 003°47'.

Length 18 m.

Type: Fishing. MMSI: 228374000.

Date/timePositionNaut miles runAvg speedWind from/ knotsBaromVisibWave heightAir tempDewpointWater temp
2016-Aug-25 16:33N 46°32' W 003°47'2 2.1
2016-Aug-25 15:33N 46°32' W 003°44'29 9.1
2016-Aug-25 12:21N 47°01' W 003°34'8 9.9
2016-Aug-25 11:30N 47°09' W 003°30'9 9.6
2016-Aug-25 10:33N 47°18' W 003°28'10 9.8
2016-Aug-25 09:34N 47°27' W 003°24'10 9.6
2016-Aug-25 08:33N 47°37' W 003°22'7 6.9
2016-Aug-25 07:34N 47°44' W 003°22'0 0.1
2016-Aug-25 06:33N 47°44' W 003°22'0 0.0
2016-Aug-25 04:33N 47°44' W 003°22'0 0.0
2016-Aug-25 03:33N 47°44' W 003°22'0 0.0
2016-Aug-25 02:33N 47°44' W 003°22'0 0.0
2016-Aug-25 01:33N 47°44' W 003°22'0 0.0
2016-Aug-25 00:34N 47°44' W 003°22'0 0.0
2016-Aug-24 23:34N 47°44' W 003°22'0 0.0
2016-Aug-24 22:34N 47°44' W 003°22'0 0.0
2016-Aug-24 21:34N 47°44' W 003°22'0 0.0
2016-Aug-24 20:33N 47°44' W 003°22'0 0.0
2016-Aug-24 19:33N 47°44' W 003°22'0 0.0
2016-Aug-24 18:34N 47°44' W 003°22'0 0.0
2016-Aug-24 17:33N 47°44' W 003°22'0 0.0
2016-Aug-24 16:33N 47°44' W 003°22'0 0.0
2016-Aug-24 15:33N 47°44' W 003°22'0 0.0
2016-Aug-24 14:33N 47°44' W 003°22'0 0.0
2016-Aug-24 13:33N 47°44' W 003°22'0 0.0
2016-Aug-24 12:33N 47°44' W 003°22'0 0.0
2016-Aug-24 11:33N 47°44' W 003°22'0 0.0
2016-Aug-24 10:33N 47°44' W 003°22'0 0.0
2016-Aug-24 09:34N 47°44' W 003°22'0 0.0
2016-Aug-24 08:33N 47°44' W 003°22'0 0.0
2016-Aug-24 07:34N 47°44' W 003°22'0 0.0
2016-Aug-24 06:33N 47°44' W 003°22'0 0.0
2016-Aug-24 04:34N 47°44' W 003°22'0 0.0
2016-Aug-24 03:33N 47°44' W 003°22'0 0.0
2016-Aug-24 02:34N 47°44' W 003°22'0 0.0
2016-Aug-24 01:33N 47°44' W 003°22'0 0.0
2016-Aug-24 00:33N 47°44' W 003°22'0 0.0
2016-Aug-23 23:33N 47°44' W 003°22'0 0.0
2016-Aug-23 22:33N 47°44' W 003°22'0 0.0
2016-Aug-23 21:33N 47°44' W 003°22'0 0.0
2016-Aug-23 20:33N 47°44' W 003°22'0 0.0
2016-Aug-23 19:34N 47°44' W 003°22'0 0.1
2016-Aug-23 18:33N 47°44' W 003°22'0 0.1
2016-Aug-23 17:33N 47°44' W 003°22'0 0.0
2016-Aug-23 16:34N 47°44' W 003°22'0 0.0
2016-Aug-23 15:33N 47°44' W 003°22'0 0.0
2016-Aug-23 14:33N 47°44' W 003°22'2 1.7
2016-Aug-23 13:34N 47°42' W 003°22'10 9.7
2016-Aug-23 12:34N 47°33' W 003°25'9 9.4
2016-Aug-23 11:34N 47°24' W 003°31'8 8.4
2016-Aug-23 10:33N 47°16' W 003°36'9 9.5
2016-Aug-23 09:33N 47°08' W 003°43'9 9.4
2016-Aug-23 08:34N 46°60' W 003°49'10 9.8
2016-Aug-23 07:34N 46°51' W 003°56'9 9.2
2016-Aug-23 06:33N 46°43' W 004°03'11 9.9
2016-Aug-23 05:27N 46°33' W 004°10'57 4.3
2016-Aug-22 16:11N 45°58' W 005°14'  
2016-Aug-17 06:32N 45°33' W 004°32'21 8.5
2016-Aug-17 04:07N 45°13' W 004°22'  

Dump ship's entire track history